Time;durP1;ratioP1;P1;durP2;ratioP2;P2;SDS_P1;SDS_P2;PMS_P1;PMS_P2;Temp;Humidity;BMP_temperature;BMP_pressure;BME280_temperature;BME280_humidity;BME280_pressure;Samples;Min_cycle;Max_cycle;Signal;HPM_P1;HPM_P2
2021/04/04 00:01:45;;;;;;;9.77;2.00;;;6.60;99.90;;;6.62;76.09;102830.06;5021800;28;20096;-62
2021/04/04 00:04:11;;;;;;;9.02;1.98;;;6.70;99.90;;;6.51;77.22;102824.69;5009835;28;20447;-62
2021/04/04 00:06:37;;;;;;;10.55;1.55;;;6.70;99.90;;;6.34;79.01;102827.88;5016199;28;20053;-62
2021/04/04 00:09:03;;;;;;;9.07;1.83;;;6.60;99.90;;;6.21;81.24;102827.16;5014927;28;20124;-61
2021/04/04 00:11:29;;;;;;;13.30;3.05;;;6.50;99.90;;;6.21;81.89;102833.41;5014077;28;20045;-62
2021/04/04 00:13:55;;;;;;;11.48;2.70;;;6.60;99.90;;;6.51;81.35;102824.69;4996619;28;20042;-62
2021/04/04 00:16:20;;;;;;;11.50;1.90;;;6.50;99.90;;;6.44;81.10;102820.72;4996968;28;20447;-62
2021/04/04 00:18:46;;;;;;;9.85;1.40;;;6.50;99.90;;;6.27;80.49;102826.66;4983575;28;20037;-62
2021/04/04 00:21:12;;;;;;;14.73;2.70;;;6.40;99.90;;;6.31;80.61;102833.56;5018934;28;20033;-64
2021/04/04 00:23:38;;;;;;;8.48;1.58;;;6.40;99.90;;;6.54;79.47;102835.25;5011477;28;20072;-61
2021/04/04 00:26:04;;;;;;;8.73;1.80;;;6.50;99.90;;;6.48;79.75;102825.78;5021884;28;20048;-63
2021/04/04 00:28:30;;;;;;;9.55;2.97;;;6.50;99.90;;;6.59;80.03;102821.34;5013326;28;20022;-63
2021/04/04 00:30:56;;;;;;;11.20;2.10;;;6.50;99.90;;;6.45;80.80;102815.19;5012693;28;20125;-62
2021/04/04 00:33:22;;;;;;;11.60;3.47;;;6.50;99.90;;;6.30;81.16;102821.00;5024686;28;20086;-63
2021/04/04 00:35:48;;;;;;;12.98;2.40;;;6.50;99.90;;;6.37;80.62;102822.22;5015506;28;20079;-62
2021/04/04 00:38:14;;;;;;;11.02;2.58;;;6.50;99.90;;;6.39;80.33;102814.84;5026172;28;20046;-62
2021/04/04 00:40:41;;;;;;;9.10;2.00;;;6.70;99.90;;;6.39;80.87;102817.56;5013247;28;20041;-64
2021/04/04 00:43:08;;;;;;;11.15;2.10;;;6.60;99.90;;;6.44;81.53;102818.03;5025489;28;20857;-63
2021/04/04 00:45:37;;;;;;;16.17;3.03;;;6.60;99.90;;;6.26;81.77;102814.13;4993734;28;20041;-61
2021/04/04 00:48:05;;;;;;;10.00;2.03;;;6.40;99.90;;;6.15;82.52;102813.16;4996138;28;20030;-62
2021/04/04 00:50:39;;;;;;;14.18;2.65;;;6.40;99.90;;;6.26;81.93;102808.72;5026668;28;20127;-61
2021/04/04 00:53:06;;;;;;;10.57;2.28;;;6.40;99.90;;;6.16;81.11;102806.75;5013444;28;20103;-64
2021/04/04 00:55:33;;;;;;;11.82;1.83;;;6.40;99.90;;;6.21;79.79;102808.25;5012052;28;20187;-63
2021/04/04 00:57:59;;;;;;;8.25;2.33;;;6.40;99.90;;;6.08;78.48;102805.66;4996561;28;20477;-61
2021/04/04 01:00:30;;;;;;;9.57;1.52;;;6.40;99.90;;;6.28;77.92;102812.16;5024180;28;20041;-61
2021/04/04 01:02:57;;;;;;;7.82;1.77;;;6.40;99.90;;;6.48;76.75;102803.28;5026895;28;20038;-61
2021/04/04 01:05:31;;;;;;;12.00;2.60;;;6.50;99.90;;;6.51;76.46;102803.03;5012558;28;20034;-62
2021/04/04 01:07:58;;;;;;;10.65;2.13;;;6.60;99.90;;;6.39;75.90;102801.34;5025389;28;20385;-62
2021/04/04 01:10:31;;;;;;;8.95;1.65;;;6.60;99.90;;;6.44;75.45;102793.69;5022333;28;20114;-65
2021/04/04 01:13:37;;;;;;;3.45;1.30;;;6.60;99.90;;;6.48;75.35;102797.88;5010033;28;20056;-61
2021/04/04 01:16:10;;;;;;;10.13;1.58;;;6.60;99.90;;;6.33;75.68;102799.97;5015428;28;20471;-62
2021/04/04 01:19:08;;;;;;;9.60;1.90;;;6.60;99.90;;;6.20;76.54;102793.88;5018955;28;20124;-65
2021/04/04 01:22:09;;;;;;;4.45;1.45;;;6.50;99.90;;;6.29;75.90;102797.66;5017523;28;20037;-68
2021/04/04 01:25:14;;;;;;;7.88;2.78;;;6.50;99.90;;;6.34;76.04;102798.13;5012250;28;20424;-74
2021/04/04 01:27:59;;;;;;;9.10;1.47;;;6.50;99.90;;;6.48;75.26;102792.47;5029215;28;20048;-66
2021/04/04 01:30:33;;;;;;;8.68;1.70;;;6.50;99.90;;;6.39;75.17;102798.63;5029962;28;20300;-62
2021/04/04 01:33:01;;;;;;;7.75;1.67;;;6.50;99.90;;;6.26;76.21;102796.06;5011485;28;20040;-62
2021/04/04 01:35:34;;;;;;;12.82;2.00;;;6.40;99.90;;;6.23;76.27;102792.72;5013213;28;20053;-63
2021/04/04 01:38:10;;;;;;;12.35;2.88;;;6.40;99.90;;;6.28;76.54;102787.81;5013848;28;20029;-61
2021/04/04 01:40:37;;;;;;;7.07;1.45;;;6.50;99.90;;;6.29;77.04;102776.03;5013156;28;20053;-61
2021/04/04 01:43:06;;;;;;;13.02;2.05;;;6.40;99.90;;;6.25;77.29;102780.81;5023671;28;20112;-62
2021/04/04 01:45:34;;;;;;;8.40;2.13;;;6.40;99.90;;;6.40;76.42;102782.28;5013653;28;20034;-62
2021/04/04 01:48:02;;;;;;;12.75;2.83;;;6.40;99.90;;;6.37;76.46;102779.81;5012747;28;20074;-62
2021/04/04 01:50:28;;;;;;;13.35;2.08;;;6.40;99.90;;;6.21;77.04;102778.50;4996553;28;20042;-64
2021/04/04 01:52:55;;;;;;;13.93;2.08;;;6.50;99.90;;;6.32;77.78;102771.19;5012354;28;20092;-64
2021/04/04 01:55:23;;;;;;;8.00;1.88;;;6.40;99.90;;;6.52;77.03;102769.59;5015373;28;20503;-63
2021/04/04 01:57:50;;;;;;;11.00;1.20;;;6.60;99.90;;;6.65;76.20;102778.41;5013326;28;20037;-65
2021/04/04 02:00:22;;;;;;;10.93;1.67;;;6.60;99.90;;;6.61;76.02;102765.25;5008978;28;20112;-61
2021/04/04 02:02:49;;;;;;;11.60;2.05;;;6.70;99.90;;;6.59;75.96;102762.66;5019764;28;20506;-64
2021/04/04 02:05:17;;;;;;;6.55;1.55;;;6.70;99.90;;;6.55;76.16;102761.19;5000875;28;20044;-63
2021/04/04 02:07:50;;;;;;;12.18;1.73;;;6.70;99.90;;;6.66;75.48;102763.88;5020909;28;20041;-63
2021/04/04 02:10:28;;;;;;;11.60;2.40;;;6.70;99.90;;;6.55;76.23;102761.19;5014778;28;20046;-62
2021/04/04 02:13:00;;;;;;;5.75;1.40;;;6.60;99.90;;;6.39;76.68;102755.34;5026329;28;20511;-62
2021/04/04 02:15:29;;;;;;;12.48;2.47;;;6.60;99.90;;;6.35;76.56;102749.31;5011332;28;20416;-62
2021/04/04 02:17:57;;;;;;;7.38;1.70;;;6.60;99.90;;;6.28;77.10;102758.06;5024184;28;20045;-64
2021/04/04 02:20:25;;;;;;;6.63;2.30;;;6.60;99.90;;;6.23;77.25;102750.31;5014757;28;20492;-62
2021/04/04 02:22:54;;;;;;;4.65;1.75;;;6.50;99.90;;;6.31;76.91;102755.13;5020095;28;20038;-63
2021/04/04 02:25:20;;;;;;;8.63;1.45;;;6.40;99.90;;;6.36;76.58;102756.47;5016328;28;20040;-62
2021/04/04 02:27:47;;;;;;;7.70;0.95;;;6.40;99.90;;;6.11;77.00;102757.59;5014532;28;20512;-62
2021/04/04 02:30:18;;;;;;;9.43;1.20;;;6.40;99.90;;;6.33;76.57;102755.84;5011749;28;20041;-62
2021/04/04 02:32:57;;;;;;;8.20;1.23;;;6.40;99.90;;;6.26;76.73;102744.69;5001169;28;20045;-63
2021/04/04 02:35:36;;;;;;;6.03;1.70;;;6.40;99.90;;;6.25;76.93;102747.50;5022374;28;20120;-61
2021/04/04 02:38:15;;;;;;;10.95;2.45;;;6.40;99.90;;;6.07;77.79;102750.72;5010988;28;20358;-62
2021/04/04 02:40:46;;;;;;;7.82;1.25;;;6.40;99.90;;;6.12;76.86;102750.34;5015701;28;20029;-62
2021/04/04 02:43:26;;;;;;;8.65;1.35;;;6.30;99.90;;;6.33;76.74;102736.91;5028562;28;20507;-61
2021/04/04 02:45:55;;;;;;;6.10;1.70;;;6.40;99.90;;;6.30;76.78;102739.88;5016263;28;20393;-62
2021/04/04 02:48:34;;;;;;;6.30;1.35;;;6.40;99.90;;;6.10;76.60;102731.53;5016637;28;20069;-62
2021/04/04 02:51:04;;;;;;;9.30;1.42;;;6.40;99.90;;;6.18;75.94;102744.44;5033233;28;20092;-63
2021/04/04 02:53:37;;;;;;;10.00;2.33;;;6.40;99.90;;;6.13;76.59;102734.00;5013859;28;20104;-62
2021/04/04 02:56:05;;;;;;;5.80;1.08;;;6.30;99.90;;;6.00;77.90;102735.97;5024603;28;20037;-62
2021/04/04 02:58:32;;;;;;;11.30;1.67;;;6.30;99.90;;;6.10;77.53;102731.53;5003895;28;20137;-61
2021/04/04 03:01:00;;;;;;;9.57;1.77;;;6.20;99.90;;;6.09;78.25;102721.72;5014628;28;20038;-64
2021/04/04 03:03:30;;;;;;;11.02;1.83;;;6.20;99.90;;;5.97;78.60;102720.03;5024645;28;20521;-62
2021/04/04 03:05:58;;;;;;;9.55;1.15;;;6.20;99.90;;;6.04;78.71;102717.66;5015097;28;20437;-61
2021/04/04 03:08:26;;;;;;;10.55;2.90;;;6.20;99.90;;;6.11;78.30;102717.03;4998684;28;20118;-62
2021/04/04 03:10:54;;;;;;;4.93;1.70;;;6.10;99.90;;;6.15;78.54;102723.06;5029479;28;20053;-63
2021/04/04 03:13:22;;;;;;;8.13;1.75;;;6.20;99.90;;;6.23;77.62;102722.44;5014997;28;20030;-61
2021/04/04 03:15:50;;;;;;;5.75;1.58;;;6.20;99.90;;;6.26;77.54;102719.47;5027951;28;20069;-61
2021/04/04 03:18:19;;;;;;;17.38;2.08;;;6.30;99.90;;;6.11;78.18;102714.34;5015681;28;20106;-62
2021/04/04 03:20:46;;;;;;;16.55;1.85;;;6.20;99.90;;;6.35;77.56;102716.88;5014562;28;20034;-62
2021/04/04 03:23:18;;;;;;;6.40;1.05;;;6.40;99.90;;;6.28;78.00;102720.22;5029105;28;20034;-61
2021/04/04 03:25:47;;;;;;;11.93;2.22;;;6.40;99.90;;;6.45;77.79;102722.38;5014727;28;20037;-61
2021/04/04 03:28:17;;;;;;;12.35;1.90;;;6.50;99.90;;;6.36;77.98;102718.59;4981323;28;20583;-62
2021/04/04 03:30:46;;;;;;;12.18;1.65;;;6.50;99.90;;;6.30;79.16;102718.25;5015341;28;20033;-65
2021/04/04 03:33:23;;;;;;;10.07;2.20;;;6.50;99.90;;;6.26;80.18;102717.63;5012883;28;20504;-64
2021/04/04 03:35:54;;;;;;;8.73;3.15;;;6.50;99.90;;;6.10;81.29;102712.59;5029560;28;20037;-62
2021/04/04 03:38:23;;;;;;;4.88;1.45;;;6.40;99.90;;;6.25;81.12;102715.91;5013688;28;20037;-64
2021/04/04 03:40:51;;;;;;;5.93;1.30;;;6.40;99.90;;;6.28;81.25;102717.50;5014402;28;20091;-62
2021/04/04 03:43:29;;;;;;;12.18;1.58;;;6.40;99.90;;;6.27;81.23;102713.09;4980957;28;20065;-65
2021/04/04 03:46:02;;;;;;;4.38;1.20;;;6.40;99.90;;;6.47;80.37;102715.00;5001940;28;20034;-62
2021/04/04 03:48:30;;;;;;;2.08;0.68;;;6.40;99.90;;;6.18;81.82;102715.56;5029725;28;20048;-63
2021/04/04 03:50:58;;;;;;;1.48;0.63;;;6.40;99.90;;;6.16;82.63;102712.13;5028273;28;20061;-62
2021/04/04 03:53:27;;;;;;;5.07;1.00;;;6.40;99.90;;;6.22;82.31;102716.16;5023662;28;20485;-61
2021/04/04 03:56:04;;;;;;;13.18;1.27;;;6.40;99.90;;;6.10;83.43;102712.59;4997702;28;20501;-61
2021/04/04 03:58:34;;;;;;;4.68;0.93;;;6.30;99.90;;;6.10;83.53;102711.75;5022768;28;20045;-62
2021/04/04 04:01:04;;;;;;;3.22;0.95;;;6.30;99.90;;;6.18;82.61;102712.00;5000262;28;20045;-63
2021/04/04 04:03:33;;;;;;;5.65;1.40;;;6.40;99.90;;;6.41;81.85;102712.81;5029158;28;20044;-62
2021/04/04 04:06:00;;;;;;;4.82;0.77;;;6.40;99.90;;;6.41;80.85;102710.09;5007544;28;20030;-62
2021/04/04 04:08:27;;;;;;;4.28;1.35;;;6.40;99.90;;;6.34;80.85;102709.75;5015980;28;20087;-62
2021/04/04 04:10:54;;;;;;;5.40;0.70;;;6.50;99.90;;;6.45;80.64;102703.44;5009105;28;20038;-62
2021/04/04 04:13:21;;;;;;;2.30;0.80;;;6.50;99.90;;;6.69;79.59;102698.69;5011632;28;20037;-61
2021/04/04 04:15:51;;;;;;;2.28;0.90;;;6.60;99.90;;;6.42;79.64;102691.06;5008459;28;20087;-62
2021/04/04 04:18:17;;;;;;;6.35;1.10;;;6.60;99.90;;;6.54;79.15;102694.56;5030425;28;20038;-63
2021/04/04 04:20:45;;;;;;;2.90;0.90;;;6.60;99.90;;;6.41;79.37;102689.34;5013251;28;20512;-61
2021/04/04 04:23:12;;;;;;;7.20;2.17;;;6.60;99.90;;;6.53;79.42;102692.84;5017269;28;20056;-61
2021/04/04 04:25:40;;;;;;;3.45;1.00;;;6.70;99.90;;;6.56;79.47;102692.56;5016763;28;20030;-63
2021/04/04 04:28:09;;;;;;;2.55;0.95;;;6.80;99.90;;;6.70;78.58;102694.97;5013175;28;20030;-61
2021/04/04 04:30:36;;;;;;;2.97;1.27;;;6.80;99.90;;;6.89;77.55;102694.28;5011776;28;20553;-62
2021/04/04 04:33:07;;;;;;;4.97;1.30;;;6.90;99.90;;;6.72;77.92;102693.00;5023141;28;20037;-62
2021/04/04 04:35:34;;;;;;;6.78;1.35;;;6.90;99.90;;;6.62;78.06;102686.66;5024729;28;20074;-61
2021/04/04 04:38:02;;;;;;;4.60;1.35;;;6.80;99.90;;;6.56;78.25;102682.63;5012634;28;20044;-65
2021/04/04 04:40:28;;;;;;;6.35;1.52;;;6.90;99.90;;;6.60;78.54;102685.06;5013671;28;20026;-63
2021/04/04 04:42:56;;;;;;;6.35;1.35;;;6.80;99.90;;;6.55;78.24;102680.03;4999808;28;20046;-64
2021/04/04 04:45:30;;;;;;;5.57;2.47;;;6.80;99.90;;;6.62;78.07;102683.09;5032312;28;20380;-62
2021/04/04 04:47:57;;;;;;;4.93;2.40;;;6.80;99.90;;;6.57;78.13;102686.19;5017788;28;20034;-66
2021/04/04 04:50:25;;;;;;;8.15;2.63;;;6.80;99.90;;;6.79;76.72;102682.50;5021979;28;20172;-62
2021/04/04 04:52:51;;;;;;;8.93;2.88;;;6.80;99.90;;;6.69;76.83;102671.63;5009061;28;20099;-61
2021/04/04 04:55:23;;;;;;;6.68;2.47;;;6.80;99.90;;;6.87;76.08;102674.63;5013012;28;20052;-63
2021/04/04 04:57:49;;;;;;;6.40;2.78;;;6.90;99.90;;;6.83;75.80;102674.00;5009516;28;20037;-63
2021/04/04 05:00:17;;;;;;;8.40;2.60;;;7.00;99.90;;;6.60;76.52;102668.84;5012590;28;20029;-63
2021/04/04 05:02:43;;;;;;;5.10;3.15;;;6.90;99.90;;;6.79;75.88;102672.53;4995993;28;20054;-64
2021/04/04 05:05:12;;;;;;;9.02;3.05;;;6.90;99.90;;;6.51;76.51;102667.78;5023187;28;20052;-61
2021/04/04 05:07:40;;;;;;;13.07;2.53;;;6.90;99.90;;;6.84;75.09;102664.91;5012082;28;20034;-62
2021/04/04 05:10:09;;;;;;;9.23;3.63;;;6.90;99.90;;;6.79;75.39;102664.44;5005675;28;20033;-63
2021/04/04 05:12:56;;;;;;;7.80;3.13;;;6.90;99.90;;;6.69;75.25;102676.16;4995825;28;20037;-62
2021/04/04 05:15:26;;;;;;;10.93;3.42;;;7.00;99.90;;;6.75;75.59;102676.53;5029074;28;20038;-63
2021/04/04 05:17:53;;;;;;;9.55;3.60;;;7.00;99.90;;;6.90;75.17;102668.91;5032844;28;20116;-62
2021/04/04 05:20:20;;;;;;;7.10;2.65;;;7.00;99.90;;;6.70;75.12;102681.44;5011788;28;20107;-62
2021/04/04 05:22:46;;;;;;;13.30;4.53;;;7.00;99.90;;;6.88;74.82;102676.34;5014744;28;20040;-62
2021/04/04 05:25:13;;;;;;;6.20;2.53;;;7.00;99.90;;;6.85;74.94;102671.19;5031302;28;20632;-62
2021/04/04 05:27:39;;;;;;;14.80;2.70;;;7.00;99.90;;;6.90;74.75;102680.59;5030734;28;20033;-62
2021/04/04 05:30:11;;;;;;;13.15;2.95;;;7.10;99.90;;;6.95;74.96;102682.06;5011981;28;20049;-62
2021/04/04 05:32:50;;;;;;;8.63;2.10;;;7.10;99.90;;;6.93;74.66;102680.34;5012278;28;20042;-60
2021/04/04 05:35:21;;;;;;;8.15;3.13;;;7.10;99.90;;;6.64;74.52;102679.28;5008667;28;20461;-60
2021/04/04 05:37:50;;;;;;;5.07;2.35;;;7.00;99.90;;;6.71;74.07;102675.06;5027196;28;20120;-64
2021/04/04 05:40:25;;;;;;;6.30;2.58;;;7.00;99.90;;;6.70;74.08;102684.16;5021693;28;20041;-63
2021/04/04 05:42:57;;;;;;;4.10;2.75;;;6.90;99.90;;;6.64;73.88;102682.00;5004539;28;20030;-64
2021/04/04 05:45:58;;;;;;;9.00;3.30;;;6.90;99.90;;;6.62;73.77;102681.25;5024098;28;20042;-63
2021/04/04 05:48:38;;;;;;;9.45;3.78;;;6.90;99.90;;;6.50;74.14;102680.44;5017047;28;20065;-63
2021/04/04 05:51:38;;;;;;;8.25;3.38;;;6.90;99.90;;;6.53;74.00;102673.91;5018332;28;20057;-62
2021/04/04 05:54:49;;;;;;;6.70;2.45;;;6.90;99.90;;;6.48;74.14;102674.28;5029753;28;20025;-62
2021/04/04 05:57:24;;;;;;;6.90;2.50;;;6.80;99.90;;;6.83;73.08;102673.16;5035532;28;20057;-62
2021/04/04 05:59:57;;;;;;;10.57;2.33;;;7.00;99.90;;;6.80;73.09;102684.22;5027904;28;20038;-62
2021/04/04 06:02:45;;;;;;;10.82;2.40;;;7.00;99.90;;;6.77;73.44;102679.09;4995222;28;20114;-62
2021/04/04 06:05:34;;;;;;;6.85;2.28;;;7.00;99.90;;;6.72;73.31;102681.31;5013560;28;20034;-62
2021/04/04 06:08:43;;;;;;;8.40;2.65;;;7.00;99.90;;;6.70;73.72;102673.34;5011903;28;20037;-61
2021/04/04 06:11:53;;;;;;;4.90;2.22;;;6.90;99.90;;;6.85;73.03;102676.59;5012771;28;20042;-62
2021/04/04 06:14:30;;;;;;;4.55;2.63;;;7.00;99.90;;;6.91;72.62;102679.63;5028692;28;20041;-61
2021/04/04 06:17:08;;;;;;;11.10;2.83;;;7.00;99.90;;;6.99;72.32;102678.13;5012042;28;20409;-62
2021/04/04 06:20:03;;;;;;;12.45;2.58;;;7.10;99.90;;;6.96;71.59;102689.22;5016837;28;20120;-61
2021/04/04 06:22:32;;;;;;;;;;;7.10;99.90;;;6.84;72.11;102683.84;5019483;28;20042;-62
2021/04/04 06:25:27;;;;;;;12.93;3.13;;;7.20;99.90;;;6.65;72.73;102686.41;5028762;28;20012;-61
2021/04/04 06:28:12;;;;;;;6.57;2.53;;;7.00;99.90;;;6.83;72.21;102690.25;5027079;28;20070;-62
2021/04/04 06:30:52;;;;;;;11.88;2.90;;;7.00;99.90;;;6.93;72.47;102685.75;5027223;28;20057;-62
2021/04/04 06:33:32;;;;;;;6.75;2.13;;;7.10;99.90;;;7.09;71.18;102684.47;5027131;28;20045;-63
2021/04/04 06:36:04;;;;;;;10.05;3.00;;;7.10;99.90;;;7.15;70.81;102689.34;5021452;28;20034;-62
2021/04/04 06:38:57;;;;;;;8.70;3.17;;;7.20;99.90;;;7.25;70.63;102685.69;5025489;28;20060;-63
2021/04/04 06:42:04;;;;;;;8.02;2.50;;;7.30;99.90;;;7.25;70.11;102674.84;5029347;28;20123;-63
2021/04/04 06:45:13;;;;;;;9.30;3.85;;;7.40;99.90;;;7.13;70.57;102680.47;5027942;28;20522;-62
2021/04/04 06:48:08;;;;;;;10.23;3.47;;;7.30;99.90;;;7.30;70.15;102669.06;5012037;28;20440;-66
2021/04/04 06:50:46;;;;;;;7.35;3.40;;;7.40;99.90;;;7.19;70.90;102669.13;5012309;28;20050;-64
2021/04/04 06:53:41;;;;;;;14.80;3.42;;;7.40;99.90;;;7.22;70.42;102669.69;5010291;28;20474;-60
2021/04/04 06:56:46;;;;;;;;;;;7.50;99.90;;;6.95;71.48;102672.09;5029166;28;20056;-61
2021/04/04 06:59:53;;;;;;;8.82;2.75;;;7.40;99.90;;;7.23;70.53;102665.13;5013411;28;19924;-63
2021/04/04 07:02:21;;;;;;;9.05;2.65;;;7.40;99.90;;;7.14;71.23;102666.81;5029235;28;20080;-64
2021/04/04 07:04:54;;;;;;;7.70;3.15;;;7.40;99.90;;;7.14;71.76;102663.25;5014645;28;20030;-61
2021/04/04 07:08:06;;;;;;;8.15;3.22;;;7.40;99.90;;;7.21;71.79;102659.03;5011239;28;20045;-61
2021/04/04 07:10:50;;;;;;;11.98;3.28;;;7.40;99.90;;;7.34;71.30;102656.94;5019718;28;20066;-61
2021/04/04 07:14:06;;;;;;;9.30;3.95;;;7.60;99.90;;;7.36;70.89;102660.38;5012206;28;20037;-63
2021/04/04 07:17:10;;;;;;;8.20;2.97;;;7.60;99.90;;;7.33;71.27;102660.66;5008663;28;20053;-60
2021/04/04 07:20:00;;;;;;;4.72;2.58;;;7.50;99.90;;;7.33;70.58;102655.25;5010882;28;20511;-63
2021/04/04 07:23:13;;;;;;;9.50;3.08;;;7.50;99.90;;;7.53;70.56;102657.03;5014269;28;20120;-63
2021/04/04 07:26:12;;;;;;;7.63;3.58;;;7.60;99.90;;;7.51;70.53;102652.75;5024603;28;20111;-63
2021/04/04 07:28:42;;;;;;;5.47;3.00;;;7.60;99.90;;;7.70;69.97;102641.13;5004034;28;20042;-64
2021/04/04 07:31:12;;;;;;;9.70;3.00;;;7.70;99.90;;;7.73;69.42;102638.16;5027814;28;20112;-64
2021/04/04 07:33:56;;;;;;;9.25;4.00;;;7.80;99.90;;;7.80;68.76;102648.28;5002558;28;20034;-62
2021/04/04 07:36:52;;;;;;;5.28;3.05;;;7.90;99.90;;;7.67;68.84;102641.41;5014764;28;20088;-65
2021/04/04 07:39:45;;;;;;;6.35;3.00;;;7.90;99.90;;;7.48;70.56;102643.03;5029916;28;20033;-63
2021/04/04 07:42:52;;;;;;;10.43;3.80;;;7.80;99.90;;;7.79;69.99;102638.44;5044193;28;20042;-64
2021/04/04 07:45:50;;;;;;;7.22;3.10;;;7.90;99.90;;;8.01;68.61;102645.50;5015969;28;20037;-62
2021/04/04 07:48:23;;;;;;;7.57;2.78;;;8.10;99.90;;;8.21;67.89;102640.97;5021266;28;20532;-65
2021/04/04 07:51:14;;;;;;;8.55;3.17;;;8.10;99.90;;;8.28;66.77;102642.09;5024440;28;20042;-64
2021/04/04 07:54:04;;;;;;;6.28;2.83;;;8.30;99.90;;;8.25;66.90;102643.25;5014409;28;20021;-64
2021/04/04 07:56:56;;;;;;;6.93;2.97;;;8.40;99.90;;;8.22;67.38;102640.84;5028626;28;20052;-62
2021/04/04 07:59:35;;;;;;;11.57;3.75;;;8.40;99.90;;;8.33;67.05;102639.88;5015403;28;20388;-66
2021/04/04 08:02:10;;;;;;;7.20;3.40;;;8.40;99.90;;;8.28;66.00;102636.69;5002631;28;20022;-63
2021/04/04 08:04:44;;;;;;;10.15;3.40;;;8.50;99.90;;;8.26;66.42;102639.53;5033032;28;20396;-62
2021/04/04 08:08:15;;;;;;;9.50;3.80;;;8.50;99.90;;;8.33;65.89;102643.44;5025917;28;20034;-62
2021/04/04 08:11:01;;;;;;;5.78;3.30;;;8.50;99.90;;;8.31;65.34;102642.72;5011425;28;20440;-63
2021/04/04 08:13:56;;;;;;;5.50;2.80;;;8.60;99.90;;;8.34;65.23;102637.03;5007819;28;20541;-65
2021/04/04 08:16:49;;;;;;;7.00;3.38;;;8.60;99.90;;;8.52;64.94;102633.59;5007429;28;20048;-64
2021/04/04 08:19:15;;;;;;;10.50;3.05;;;8.60;99.90;;;8.43;64.39;102631.75;5020591;28;20504;-63
2021/04/04 08:22:08;;;;;;;7.15;3.17;;;8.60;99.90;;;8.53;63.53;102638.03;5025096;28;20045;-63
2021/04/04 08:24:49;;;;;;;10.40;3.22;;;8.70;99.90;;;8.76;63.39;102639.44;5033596;28;20126;-61
2021/04/04 08:27:46;;;;;;;10.93;2.47;;;8.80;99.90;;;8.84;61.72;102633.28;5017938;28;20041;-62
2021/04/04 08:30:23;;;;;;;7.65;3.35;;;8.90;99.90;;;9.31;61.46;102626.03;5013210;28;20117;-62
2021/04/04 08:33:22;;;;;;;10.55;3.60;;;9.20;99.90;;;9.57;60.79;102632.50;5026409;28;20026;-64
2021/04/04 08:35:52;;;;;;;4.97;2.55;;;9.40;99.90;;;9.63;59.62;102625.59;5028427;28;20100;-62
2021/04/04 08:38:28;;;;;;;6.95;2.83;;;9.60;99.90;;;9.93;58.86;102624.44;5024566;28;20038;-66
2021/04/04 08:41:00;;;;;;;5.82;2.53;;;9.80;99.90;;;10.28;57.26;102626.38;5016466;28;20038;-64
2021/04/04 08:43:27;;;;;;;8.85;2.72;;;10.00;99.90;;;10.44;56.75;102627.41;5031354;28;20030;-64
2021/04/04 08:46:25;;;;;;;6.95;2.35;;;10.20;99.70;;;10.32;55.36;102625.91;4999936;28;20497;-63
2021/04/04 08:48:52;;;;;;;3.83;2.05;;;10.30;99.30;;;10.34;56.45;102626.63;5030269;28;20096;-63
2021/04/04 08:51:24;;;;;;;4.72;2.53;;;10.40;99.10;;;10.28;56.07;102621.78;5000510;28;20163;-63
2021/04/04 08:53:52;;;;;;;8.43;2.30;;;10.40;99.00;;;10.33;56.12;102615.88;5031543;28;20069;-64
2021/04/04 08:56:20;;;;;;;8.02;2.60;;;10.50;99.00;;;10.31;56.23;102616.03;5027692;28;20050;-63
2021/04/04 08:58:50;;;;;;;4.50;3.10;;;10.50;98.80;;;10.50;56.15;102610.41;5014343;28;20025;-63
2021/04/04 09:01:37;;;;;;;8.20;2.80;;;10.60;98.90;;;11.01;55.35;102616.97;5000535;28;20037;-62
2021/04/04 09:04:08;;;;;;;6.55;2.90;;;10.80;98.90;;;11.41;53.51;102621.81;5029049;28;20026;-62
2021/04/04 09:06:41;;;;;;;6.25;2.40;;;11.00;98.50;;;11.47;53.28;102615.72;5013138;28;20041;-64
2021/04/04 09:09:24;;;;;;;9.18;2.60;;;11.30;98.40;;;11.18;52.56;102615.19;5027385;28;20029;-63
2021/04/04 09:11:53;;;;;;;10.48;2.85;;;11.30;97.60;;;11.21;52.81;102618.47;5013633;28;20452;-63
2021/04/04 09:14:22;;;;;;;8.15;3.03;;;11.40;97.70;;;11.30;52.74;102611.19;5019599;28;20041;-66
2021/04/04 09:17:11;;;;;;;6.63;2.35;;;11.40;97.60;;;11.70;51.67;102607.81;5011370;28;20450;-63
2021/04/04 09:19:45;;;;;;;5.97;2.60;;;11.40;97.50;;;11.67;51.14;102610.84;4996814;28;20061;-64
2021/04/04 09:22:19;;;;;;;3.28;2.28;;;11.60;97.10;;;11.81;50.73;102613.00;5016605;28;20429;-65
2021/04/04 09:25:07;;;;;;;8.32;3.25;;;11.70;96.90;;;11.57;50.63;102602.81;5027492;28;20156;-63
2021/04/04 09:27:41;;;;;;;4.30;2.58;;;11.70;96.70;;;11.60;51.28;102602.50;5002014;28;20060;-63
2021/04/04 09:30:23;;;;;;;9.65;2.53;;;11.70;96.80;;;11.59;51.27;102597.19;5022407;28;20042;-62
2021/04/04 09:33:04;;;;;;;5.03;2.30;;;11.70;96.70;;;11.78;50.51;102602.41;5011104;28;20030;-63
2021/04/04 09:35:31;;;;;;;6.90;2.30;;;11.80;96.70;;;12.04;49.87;102604.19;4996494;28;20061;-62
2021/04/04 09:38:08;;;;;;;7.30;3.22;;;11.90;96.50;;;12.23;49.85;102601.16;5000892;28;20049;-65
2021/04/04 09:40:34;;;;;;;15.25;3.88;;;12.00;96.30;;;12.53;48.93;102596.91;5012379;28;20087;-62
2021/04/04 09:43:13;;;;;;;6.90;3.53;;;12.20;96.30;;;12.82;47.95;102589.06;5020743;28;20036;-65
2021/04/04 09:45:41;;;;;;;10.60;2.90;;;12.40;96.20;;;12.29;49.26;102586.84;5004006;28;20044;-63
2021/04/04 09:48:20;;;;;;;6.78;2.92;;;12.50;95.80;;;12.26;49.97;102587.19;5023081;28;20029;-62
2021/04/04 09:50:47;;;;;;;7.40;3.28;;;12.40;95.80;;;12.67;48.33;102593.50;5012715;28;20505;-66
2021/04/04 09:53:33;;;;;;;5.40;2.30;;;12.50;95.80;;;12.37;48.37;102581.38;5011995;28;20038;-64
2021/04/04 09:56:06;;;;;;;5.80;2.78;;;12.60;95.30;;;12.15;48.80;102584.78;5004124;28;20053;-64
2021/04/04 09:58:32;;;;;;;9.63;2.50;;;12.40;95.30;;;12.16;48.79;102578.28;4997160;28;20495;-65
2021/04/04 10:01:01;;;;;;;6.22;1.95;;;12.40;95.40;;;12.19;49.23;102586.16;5027160;28;20067;-62
2021/04/04 10:03:27;;;;;;;5.32;2.40;;;12.30;95.40;;;12.70;47.95;102583.09;5023980;28;20546;-63
2021/04/04 10:05:53;;;;;;;5.25;2.22;;;12.40;95.50;;;12.77;47.53;102587.88;5010562;28;20046;-62
2021/04/04 10:08:25;;;;;;;5.85;2.78;;;12.60;95.20;;;12.47;47.67;102576.63;5025398;28;20384;-63
2021/04/04 10:10:57;;;;;;;6.53;2.42;;;12.60;94.70;;;12.72;47.37;102570.13;5015270;28;20583;-67
2021/04/04 10:13:29;;;;;;;4.85;2.42;;;12.70;94.90;;;13.39;46.22;102569.84;4997514;28;20037;-64
2021/04/04 10:15:57;;;;;;;4.28;1.73;;;13.10;94.80;;;13.03;46.11;102572.13;5010545;28;20041;-62
2021/04/04 10:18:25;;;;;;;5.25;2.20;;;13.10;94.10;;;13.52;44.91;102572.00;5016660;28;20038;-64
2021/04/04 10:20:57;;;;;;;6.78;2.33;;;13.40;93.80;;;13.82;43.97;102562.97;5014399;28;20481;-64
2021/04/04 10:23:32;;;;;;;6.57;2.10;;;13.60;93.60;;;14.18;42.99;102564.09;5036661;28;20038;-65
2021/04/04 10:26:08;;;;;;;4.90;2.33;;;13.90;93.10;;;14.43;42.16;102562.06;5016786;28;20171;-66
2021/04/04 10:29:02;;;;;;;10.10;3.17;;;14.10;92.70;;;14.83;41.13;102563.56;5026927;28;20030;-66
2021/04/04 10:31:49;;;;;;;7.60;2.60;;;14.40;92.60;;;14.85;41.19;102550.53;5011597;28;20169;-69
2021/04/04 10:34:15;;;;;;;8.40;2.35;;;14.60;92.10;;;14.46;42.08;102550.72;5012394;28;20324;-63
2021/04/04 10:36:41;;;;;;;6.30;2.40;;;14.60;91.80;;;14.69;42.32;102549.84;5021015;28;20037;-67
2021/04/04 10:39:25;;;;;;;6.95;3.00;;;14.50;92.20;;;14.56;41.16;102555.94;5016693;28;20044;-62
2021/04/04 10:41:51;;;;;;;5.72;2.90;;;14.60;91.80;;;14.62;41.83;102549.72;5011925;28;20030;-64
2021/04/04 10:44:23;;;;;;;6.88;2.40;;;14.60;92.00;;;15.02;41.47;102539.38;5030363;28;20052;-63
2021/04/04 10:46:48;;;;;;;11.88;2.38;;;14.70;91.90;;;15.02;41.46;102539.38;5026968;28;20117;-63
2021/04/04 10:49:16;;;;;;;5.85;2.40;;;14.70;91.90;;;14.92;41.81;102533.31;5005358;28;20130;-67
2021/04/04 10:51:43;;;;;;;4.97;2.30;;;14.80;91.90;;;15.29;41.26;102529.66;4997169;28;20037;-64
2021/04/04 10:54:10;;;;;;;5.47;2.45;;;15.00;91.90;;;15.23;41.07;102525.78;5002348;28;20092;-65
2021/04/04 10:56:37;;;;;;;8.63;2.78;;;15.00;91.60;;;15.23;41.21;102510.19;4999384;28;20496;-65
2021/04/04 10:59:05;;;;;;;6.93;2.60;;;15.10;91.40;;;15.48;40.75;102510.69;5011120;28;20496;-67